KDBQ/DBQ METAR and TAF weather

Enter ICAO airport designator
Station Type Date Time Source
KDBQ METAR 2020/07/07 07:53 UTC NOAA

KDBQ 070753Z AUTO 21003KT 9SM CLR 22/21 A2998 RMK AO2 SLP143 T02170206


Station Type Date Time Source
KDBQ Decoded METAR 2020/07/07 07:53 UTC NOAA

DUBUQUE REGIONAL AIRPORT, IA, United States (KDBQ) 42-24N 90-42W 326M
Jul 07, 2020 - 03:53 AM EDT / 2020.07.07 0753 UTC
Wind: from the SSW (210 degrees) at 3 MPH (3 KT):0
Visibility: 9 mile(s):0
Sky conditions: clear
Temperature: 71.1 F (21.7 C)
Dew Point: 69.1 F (20.6 C)
Relative Humidity: 93%
Pressure (altimeter): 29.98 in. Hg (1015 hPa)
ob: KDBQ 070753Z AUTO 21003KT 9SM CLR 22/21 A2998 RMK AO2 SLP143 T02170206
cycle: 8

Station Type Date Time Source
KDBQ TAF 2020/07/07 06:22 UTC NOAA

TAF KDBQ 070520Z 0706/0806 23006KT P6SM FEW050 PROB30 0721/0724 -TSRA BKN035CB

Example: see airport list